Time;durP1;ratioP1;P1;durP2;ratioP2;P2;SDS_P1;SDS_P2;PMS_P1;PMS_P2;Temp;Humidity;BMP_temperature;BMP_pressure;BME280_temperature;BME280_humidity;BME280_pressure;Samples;Min_cycle;Max_cycle;Signal;HPM_P1;HPM_P2
2022/12/31 00:00:09;;;;;;;18.62;14.50;;;;;;;4.59;100.00;100342.39;1693967;84;20925;-76
2022/12/31 00:02:35;;;;;;;18.60;15.13;;;;;;;4.59;100.00;100344.55;1659991;86;21127;-81
2022/12/31 00:05:03;;;;;;;18.52;14.70;;;;;;;4.59;100.00;100348.55;1674950;84;21531;-71
2022/12/31 00:07:40;;;;;;;22.87;17.70;;;;;;;4.57;100.00;100350.57;1677051;83;21239;-75
2022/12/31 00:10:08;;;;;;;20.60;14.50;;;;;;;4.54;100.00;100350.14;1639584;86;21089;-70
2022/12/31 00:12:34;;;;;;;18.02;13.50;;;;;;;4.52;100.00;100349.50;1669728;84;21008;-72
2022/12/31 00:15:03;;;;;;;20.17;15.93;;;;;;;4.50;100.00;100349.72;1653740;86;21035;-72
2022/12/31 00:17:30;;;;;;;16.62;13.88;;;;;;;4.48;100.00;100352.25;1670060;85;21036;-72
2022/12/31 00:19:59;;;;;;;20.00;15.23;;;;;;;4.48;100.00;100348.25;1624340;86;22570;-71
2022/12/31 00:22:26;;;;;;;17.57;15.35;;;;;;;4.50;100.00;100357.71;1676912;84;21096;-72
2022/12/31 00:24:52;;;;;;;18.27;14.78;;;;;;;4.50;100.00;100351.55;1677423;85;21040;-72
2022/12/31 00:27:21;;;;;;;21.27;15.93;;;;;;;4.47;100.00;100349.27;1673465;85;21119;-71
2022/12/31 00:29:48;;;;;;;23.15;15.20;;;;;;;4.44;100.00;100355.81;1659983;84;21091;-71
2022/12/31 00:32:14;;;;;;;16.55;13.50;;;;;;;4.41;100.00;100358.87;1662404;86;21547;-73
2022/12/31 00:34:41;;;;;;;19.12;13.78;;;;;;;4.39;100.00;100353.73;1664771;85;21144;-71
2022/12/31 00:37:07;;;;;;;24.12;16.30;;;;;;;4.41;100.00;100361.54;1667244;85;21499;-76
2022/12/31 00:39:34;;;;;;;19.92;14.47;;;;;;;4.41;100.00;100364.20;1678062;84;21013;-76
2022/12/31 00:42:02;;;;;;;21.45;15.65;;;;;;;4.41;100.00;100366.86;1669323;84;21031;-77
2022/12/31 00:44:29;;;;;;;19.42;14.28;;;;;;;4.42;100.00;100364.49;1678640;85;21152;-76
2022/12/31 00:46:56;;;;;;;19.48;14.43;;;;;;;4.43;100.00;100372.80;1677806;85;21115;-76
2022/12/31 00:49:24;;;;;;;23.67;15.10;;;;;;;4.44;100.00;100367.80;1677463;84;21044;-76
2022/12/31 00:51:52;;;;;;;20.55;16.45;;;;;;;4.40;100.00;100374.53;1690504;83;21099;-76
2022/12/31 00:54:20;;;;;;;19.10;13.50;;;;;;;4.36;100.00;100375.41;1688425;83;21024;-78
2022/12/31 00:56:48;;;;;;;22.17;16.12;;;;;;;4.34;100.00;100377.45;1711550;83;20941;-77
2022/12/31 00:59:15;;;;;;;19.15;15.18;;;;;;;4.33;100.00;100378.46;1711228;83;21087;-78
2022/12/31 01:01:43;;;;;;;20.32;14.65;;;;;;;4.34;100.00;100378.78;1711639;83;21020;-75
2022/12/31 01:04:13;;;;;;;20.85;17.55;;;;;;;4.33;100.00;100385.12;1706913;83;20979;-73
2022/12/31 01:06:40;;;;;;;20.30;16.17;;;;;;;4.34;100.00;100385.44;1711193;83;21505;-74
2022/12/31 01:09:07;;;;;;;19.45;16.00;;;;;;;4.33;100.00;100386.45;1695224;83;21247;-74
2022/12/31 01:11:33;;;;;;;21.07;16.23;;;;;;;4.29;100.00;100386.52;1678931;85;21020;-76
2022/12/31 01:14:15;;;;;;;18.10;13.93;;;;;;;4.26;100.00;100395.41;1672248;84;22197;-75
2022/12/31 01:16:50;;;;;;;21.37;14.07;;;;;;;4.24;100.00;100393.44;1704151;83;21055;-74
2022/12/31 01:19:23;;;;;;;19.12;16.20;;;;;;;4.23;100.00;100395.27;1689501;84;21279;-75
2022/12/31 01:21:50;;;;;;;21.52;15.28;;;;;;;4.25;100.00;100396.42;1690023;84;21517;-75
2022/12/31 01:24:17;;;;;;;20.02;15.35;;;;;;;4.28;100.00;100398.69;1671801;83;21090;-76
2022/12/31 01:26:43;;;;;;;22.20;13.90;;;;;;;4.28;100.00;100396.85;1668679;85;20991;-74
2022/12/31 01:29:13;;;;;;;20.50;16.42;;;;;;;4.30;100.00;100398.00;1697456;84;22289;-73
2022/12/31 01:31:39;;;;;;;24.07;16.70;;;;;;;4.27;100.00;100400.52;1697466;84;21064;-74
2022/12/31 01:34:06;;;;;;;21.90;16.17;;;;;;;4.25;100.00;100396.42;1672858;84;21259;-75
2022/12/31 01:36:34;;;;;;;21.90;15.18;;;;;;;4.23;100.00;100398.44;1667898;86;21599;-75
2022/12/31 01:39:02;;;;;;;17.50;14.30;;;;;;;4.20;100.00;100394.33;1670610;85;21665;-74
2022/12/31 01:41:37;;;;;;;25.45;16.10;;;;;;;4.19;100.00;100392.68;1696425;83;21119;-72
2022/12/31 01:44:27;;;;;;;20.75;15.75;;;;;;;4.18;100.00;100396.34;1695966;84;21579;-74
2022/12/31 01:46:58;;;;;;;23.20;15.68;;;;;;;4.17;100.00;100404.02;1699124;84;21800;-75
2022/12/31 01:49:38;;;;;;;24.30;18.77;;;;;;;4.15;100.00;100403.39;1677350;83;21103;-74
2022/12/31 01:52:10;;;;;;;23.45;16.50;;;;;;;4.13;100.00;100402.75;1705903;83;20997;-75
2022/12/31 01:54:43;;;;;;;22.30;15.03;;;;;;;4.11;100.00;100397.31;1659193;85;21135;-74
2022/12/31 01:57:10;;;;;;;17.82;14.38;;;;;;;4.05;100.00;100391.41;1684969;84;21302;-75
2022/12/31 01:59:37;;;;;;;20.43;15.78;;;;;;;4.01;100.00;100398.96;1678093;85;21219;-74
2022/12/31 02:02:04;;;;;;;20.82;16.23;;;;;;;3.99;100.00;100400.98;1672820;85;21059;-75
2022/12/31 02:04:31;;;;;;;24.50;16.05;;;;;;;3.96;100.00;100398.70;1642517;86;22187;-72
2022/12/31 02:07:04;;;;;;;20.43;15.75;;;;;;;3.97;100.00;100407.02;1666465;84;21008;-74
2022/12/31 02:09:30;;;;;;;25.10;16.05;;;;;;;3.95;100.00;100404.53;1667356;86;21067;-74
2022/12/31 02:11:57;;;;;;;21.23;17.05;;;;;;;3.98;100.00;100409.17;1667140;85;21063;-76
2022/12/31 02:14:31;;;;;;;22.22;16.82;;;;;;;3.99;100.00;100412.95;1663942;84;21002;-76
2022/12/31 02:17:21;;;;;;;21.85;14.30;;;;;;;3.97;100.00;100414.17;1666185;84;20995;-75
2022/12/31 02:20:16;;;;;;;17.75;13.08;;;;;;;3.92;100.00;100415.56;1666094;85;21005;-75
2022/12/31 02:23:04;;;;;;;23.07;16.87;;;;;;;3.89;100.00;100416.42;1666547;84;21046;-75
2022/12/31 02:25:58;;;;;;;19.05;15.32;;;;;;;3.87;100.00;100416.64;1678721;85;21743;-75
2022/12/31 02:28:48;;;;;;;19.65;15.68;;;;;;;3.87;100.00;100416.64;1673437;84;21123;-72
2022/12/31 02:31:23;;;;;;;20.30;16.00;;;;;;;3.87;100.00;100420.63;1675856;85;21012;-74
2022/12/31 02:33:57;;;;;;;19.27;15.45;;;;;;;3.90;100.00;100422.90;1701673;84;21541;-73
2022/12/31 02:36:27;;;;;;;21.33;16.32;;;;;;;3.87;100.00;100428.61;1707263;83;21089;-74
2022/12/31 02:38:54;;;;;;;21.15;16.32;;;;;;;3.85;100.00;100429.30;1707517;84;21110;-75
2022/12/31 02:44:30;;;;;;;22.35;15.98;;;;;;;3.80;100.00;100439.67;1648426;85;21115;-75
2022/12/31 02:47:20;;;;;;;19.82;16.42;;;;;;;3.78;100.00;100451.03;1665988;86;21059;-75
2022/12/31 02:50:23;;;;;;;27.62;16.23;;;;;;;3.80;100.00;100449.48;1666583;84;21134;-75
2022/12/31 02:53:25;;;;;;;19.60;14.05;;;;;;;3.84;100.00;100454.75;1645563;85;22238;-75
2022/12/31 02:56:05;;;;;;;;;;;;;;;3.86;100.00;100459.39;1728321;83;20990;-74
2022/12/31 03:04:44;;;;;;;27.48;18.30;;;;;;;3.72;100.00;100452.27;1667008;85;21070;-74
2022/12/31 03:07:13;;;;;;;25.52;15.98;;;;;;;3.68;100.00;100445.17;1685163;84;22464;-74
2022/12/31 03:09:39;;;;;;;25.85;16.70;;;;;;;3.66;100.00;100445.85;1714750;83;21059;-74
2022/12/31 03:14:54;;;;;;;27.87;15.93;;;;;;;3.66;100.00;100445.02;1705052;83;21067;-74
2022/12/31 03:17:20;;;;;;;19.82;15.70;;;;;;;3.68;100.00;100441.69;1690978;84;21107;-75
2022/12/31 03:22:35;;;;;;;25.27;16.93;;;;;;;3.62;100.00;100440.59;1715907;83;21022;-74
2022/12/31 03:27:55;;;;;;;20.40;16.10;;;;;;;3.56;100.00;100438.67;1706298;83;21044;-74
2022/12/31 03:30:22;;;;;;;22.55;16.60;;;;;;;3.52;100.00;100437.39;1692556;84;21023;-74
2022/12/31 03:32:49;;;;;;;23.90;15.68;;;;;;;3.54;100.00;100446.02;1704594;83;21098;-74
2022/12/31 03:35:18;;;;;;;21.62;16.20;;;;;;;3.55;100.00;100450.84;1699993;83;21006;-76
2022/12/31 03:37:45;;;;;;;19.45;15.20;;;;;;;3.56;100.00;100452.47;1664132;84;21535;-74
2022/12/31 03:40:12;;;;;;;21.35;15.03;;;;;;;3.54;100.00;100454.00;1694058;84;21095;-75
2022/12/31 03:42:39;;;;;;;19.45;14.75;;;;;;;3.54;100.00;100454.00;1699877;83;21015;-74
2022/12/31 03:45:08;;;;;;;21.27;15.58;;;;;;;3.50;100.00;100443.42;1704379;83;21518;-75
2022/12/31 03:47:36;;;;;;;19.23;16.25;;;;;;;3.50;100.00;100448.74;1707326;83;21062;-76
2022/12/31 03:50:05;;;;;;;23.02;17.35;;;;;;;3.50;100.00;100444.75;1667405;86;21073;-74
2022/12/31 03:52:31;;;;;;;22.15;15.85;;;;;;;3.49;100.00;100442.59;1689605;84;21043;-76
2022/12/31 03:54:58;;;;;;;20.92;15.88;;;;;;;3.50;100.00;100442.89;1642276;85;21016;-79
2022/12/31 03:57:24;;;;;;;19.70;15.43;;;;;;;3.52;100.00;100444.05;1690743;83;21832;-75
2022/12/31 03:59:51;;;;;;;21.30;15.08;;;;;;;3.50;100.00;100446.87;1666682;84;21691;-74
2022/12/31 04:02:17;;;;;;;22.55;15.58;;;;;;;3.47;100.00;100446.43;1683562;85;21052;-74
2022/12/31 04:04:44;;;;;;;27.25;16.37;;;;;;;3.46;100.00;100446.94;1683295;85;21047;-73
2022/12/31 04:07:10;;;;;;;22.50;17.15;;;;;;;3.46;100.00;100448.77;1700600;83;21051;-75
2022/12/31 04:09:37;;;;;;;25.23;18.67;;;;;;;3.44;100.00;100450.80;1677426;83;21563;-74
2022/12/31 04:12:04;;;;;;;24.90;17.65;;;;;;;3.43;100.00;100448.64;1699104;84;21140;-75
2022/12/31 04:14:31;;;;;;;22.17;16.05;;;;;;;3.44;100.00;100450.80;1691707;84;21532;-75
2022/12/31 04:16:58;;;;;;;19.40;14.68;;;;;;;3.47;100.00;100455.73;1703711;83;20988;-75
2022/12/31 04:19:26;;;;;;;21.77;15.23;;;;;;;3.47;100.00;100468.53;1690073;83;21043;-74
2022/12/31 04:21:54;;;;;;;20.35;15.15;;;;;;;3.47;100.00;100468.53;1682706;83;21911;-77
2022/12/31 04:24:21;;;;;;;24.50;16.57;;;;;;;3.46;100.00;100466.88;1673431;83;21065;-76
2022/12/31 04:26:48;;;;;;;23.35;17.23;;;;;;;3.44;100.00;100475.56;1673199;83;21078;-77
2022/12/31 04:29:15;;;;;;;22.93;17.37;;;;;;;3.42;100.00;100474.08;1688954;84;21082;-76
2022/12/31 04:31:41;;;;;;;24.92;18.15;;;;;;;3.41;100.00;100493.70;1683945;83;21108;-76
2022/12/31 04:34:09;;;;;;;23.02;18.57;;;;;;;3.41;100.00;100493.70;1690750;84;21559;-77
2022/12/31 04:36:35;;;;;;;26.07;17.40;;;;;;;3.42;100.00;100495.35;1684480;84;21559;-76
2022/12/31 04:39:02;;;;;;;21.97;16.30;;;;;;;3.45;100.00;100505.11;1719761;83;21047;-78
2022/12/31 04:41:29;;;;;;;25.15;18.37;;;;;;;3.45;100.00;100505.11;1716324;83;21035;-76
2022/12/31 04:43:57;;;;;;;23.98;17.50;;;;;;;3.45;100.00;100506.97;1681386;83;22304;-77
2022/12/31 04:46:26;;;;;;;22.87;16.82;;;;;;;3.44;100.00;100503.98;1693238;83;21872;-76
2022/12/31 04:48:53;;;;;;;24.27;19.32;;;;;;;3.38;100.00;100507.37;1709845;83;21248;-77
2022/12/31 04:51:20;;;;;;;27.65;19.07;;;;;;;3.29;100.00;100505.81;1715744;83;21004;-76
2022/12/31 04:53:46;;;;;;;22.90;17.73;;;;;;;3.29;100.00;100505.81;1699449;83;20948;-76
2022/12/31 04:56:15;;;;;;;28.80;19.12;;;;;;;3.27;100.00;100507.31;1673620;84;21080;-77
2022/12/31 04:58:44;;;;;;;24.10;18.55;;;;;;;3.27;100.00;100517.11;1652494;86;21162;-77
2022/12/31 05:01:11;;;;;;;25.52;18.10;;;;;;;3.25;100.00;100507.19;1604468;89;21046;-76
2022/12/31 05:03:37;;;;;;;25.02;18.75;;;;;;;3.28;100.00;100519.60;1662251;85;21024;-77
2022/12/31 05:06:09;;;;;;;24.52;19.37;;;;;;;3.30;100.00;100512.28;1651801;84;20949;-76
2022/12/31 05:08:36;;;;;;;23.70;17.37;;;;;;;3.31;100.00;100508.59;1681459;84;21092;-74
2022/12/31 05:11:02;;;;;;;26.80;18.95;;;;;;;3.33;100.00;100517.72;1640363;86;21812;-75
2022/12/31 05:13:29;;;;;;;28.98;20.65;;;;;;;3.31;100.00;100525.08;1659807;84;22555;-75
2022/12/31 05:15:55;;;;;;;22.37;17.12;;;;;;;3.31;100.00;100525.08;1657390;86;21004;-75
2022/12/31 05:18:22;;;;;;;28.35;19.35;;;;;;;3.32;100.00;100523.54;1685831;84;20984;-76
2022/12/31 05:20:49;;;;;;;28.15;19.40;;;;;;;3.41;100.00;100525.10;1707835;83;22203;-72
2022/12/31 05:23:19;;;;;;;24.90;19.05;;;;;;;3.41;100.00;100525.10;1629903;86;21231;-75
2022/12/31 05:25:52;;;;;;;24.92;18.67;;;;;;;3.46;100.00;100529.88;1659534;86;21062;-74
2022/12/31 05:28:19;;;;;;;22.65;17.73;;;;;;;3.47;100.00;100531.53;1675538;84;20992;-75
2022/12/31 05:30:49;;;;;;;27.02;20.40;;;;;;;3.45;100.00;100533.03;1672273;84;21075;-73
2022/12/31 05:33:17;;;;;;;24.23;19.60;;;;;;;3.43;100.00;100537.72;1672149;85;21031;-75
2022/12/31 05:35:46;;;;;;;25.08;20.05;;;;;;;3.41;100.00;100533.58;1660866;84;21647;-74
2022/12/31 05:38:13;;;;;;;27.90;19.67;;;;;;;3.37;100.00;100531.80;1647495;86;21080;-78
2022/12/31 05:40:41;;;;;;;26.85;20.40;;;;;;;3.37;100.00;100531.80;1656462;86;21593;-76
2022/12/31 05:43:08;;;;;;;30.90;20.68;;;;;;;3.41;100.00;100529.09;1708320;84;21037;-75
2022/12/31 05:45:34;;;;;;;30.15;19.32;;;;;;;3.44;100.00;100524.75;1694050;84;21669;-75
2022/12/31 05:48:02;;;;;;;26.97;19.57;;;;;;;3.44;100.00;100524.75;1679205;84;21286;-78
2022/12/31 05:50:29;;;;;;;28.15;19.67;;;;;;;3.44;100.00;100531.41;1616270;87;21040;-74
2022/12/31 05:52:56;;;;;;;27.17;19.85;;;;;;;3.42;100.00;100518.78;1634167;87;21690;-75
2022/12/31 05:55:23;;;;;;;25.35;22.30;;;;;;;3.37;100.00;100522.49;1638161;87;21075;-73
2022/12/31 05:57:49;;;;;;;27.15;20.37;;;;;;;3.36;100.00;100522.16;1643678;86;21529;-74
2022/12/31 06:00:18;;;;;;;29.40;21.27;;;;;;;3.35;100.00;100521.87;1634240;86;21143;-77
2022/12/31 06:02:45;;;;;;;27.52;19.87;;;;;;;3.38;100.00;100529.47;1621482;86;21149;-74
2022/12/31 06:05:12;;;;;;;31.37;22.05;;;;;;;3.42;100.00;100536.56;1662018;85;21053;-76
2022/12/31 06:07:39;;;;;;;29.20;21.05;;;;;;;3.46;100.00;100532.53;1639155;86;21028;-75
2022/12/31 06:10:07;;;;;;;30.27;23.22;;;;;;;3.50;100.00;100535.97;1658960;86;21063;-73
2022/12/31 06:12:34;;;;;;;28.25;21.07;;;;;;;3.43;100.00;100532.91;1605769;86;21065;-76
2022/12/31 06:15:02;;;;;;;30.17;21.97;;;;;;;3.43;100.00;100532.91;1661271;85;21014;-77
2022/12/31 06:17:31;;;;;;;32.30;22.80;;;;;;;3.38;100.00;100529.47;1656638;84;20996;-75
2022/12/31 06:19:58;;;;;;;30.92;22.32;;;;;;;3.38;100.00;100529.47;1678535;83;21099;-75
2022/12/31 06:22:25;;;;;;;30.82;22.00;;;;;;;3.34;100.00;100534.83;1667551;84;21036;-74
2022/12/31 06:24:53;;;;;;;31.23;23.00;;;;;;;3.38;100.00;100537.44;1670443;85;21491;-76
2022/12/31 06:27:20;;;;;;;30.00;22.17;;;;;;;3.49;100.00;100546.80;1633881;86;21025;-72
2022/12/31 06:29:47;;;;;;;29.85;22.07;;;;;;;3.49;100.00;100546.80;1656551;84;21058;-74
2022/12/31 06:32:17;;;;;;;30.50;23.20;;;;;;;3.51;100.00;100540.78;1625692;87;21052;-73
2022/12/31 06:34:44;;;;;;;22.60;18.30;;;;;;;3.50;100.00;100543.14;1658077;85;21119;-74
2022/12/31 06:37:12;;;;;;;31.25;24.47;;;;;;;3.50;100.00;100543.14;1666829;84;21794;-76
2022/12/31 06:39:40;;;;;;;39.45;30.37;;;;;;;3.43;100.00;100540.88;1628970;87;21060;-77
2022/12/31 06:42:07;;;;;;;40.20;29.90;;;;;;;3.36;100.00;100538.11;1640984;85;21034;-75
2022/12/31 06:44:33;;;;;;;42.08;30.27;;;;;;;3.36;100.00;100539.95;1641652;85;21067;-76
2022/12/31 06:47:00;;;;;;;37.83;29.37;;;;;;;3.22;100.00;100547.41;1674465;84;21565;-74
2022/12/31 06:49:27;;;;;;;36.15;25.48;;;;;;;3.22;100.00;100547.41;1676238;84;21200;-84
2022/12/31 06:51:54;;;;;;;32.80;26.15;;;;;;;3.18;100.00;100553.59;1677392;85;21142;-74
2022/12/31 06:54:21;;;;;;;38.98;25.40;;;;;;;3.14;100.00;100564.27;1677441;83;21019;-75
2022/12/31 06:56:48;;;;;;;35.63;27.45;;;;;;;3.13;100.00;100570.58;1689213;84;21655;-75
2022/12/31 06:59:26;;;;;;;42.30;31.52;;;;;;;3.10;100.00;100571.45;1665842;84;21012;-74
2022/12/31 07:02:16;;;;;;;35.98;26.25;;;;;;;3.07;100.00;100565.98;1646654;85;21239;-73
2022/12/31 07:04:57;;;;;;;40.88;28.27;;;;;;;3.04;100.00;100564.52;1637327;86;21572;-75
2022/12/31 07:07:50;;;;;;;49.95;32.17;;;;;;;2.95;100.00;100568.75;1681467;84;21481;-75
2022/12/31 07:10:42;;;;;;;49.75;32.17;;;;;;;2.95;100.00;100568.75;1678249;84;21107;-74
2022/12/31 07:14:10;;;;;;;42.50;28.67;;;;;;;2.98;100.00;100577.19;1634534;84;21080;-73
2022/12/31 07:16:57;;;;;;;40.95;28.27;;;;;;;3.00;100.00;100576.52;1660246;84;21118;-73
2022/12/31 07:19:49;;;;;;;44.60;29.23;;;;;;;2.91;100.00;100568.80;1675427;84;21078;-75
2022/12/31 07:22:29;;;;;;;37.70;27.50;;;;;;;2.80;100.00;100571.86;1682082;84;21544;-77
2022/12/31 07:25:03;;;;;;;35.10;24.23;;;;;;;2.80;100.00;100574.52;1629811;84;21075;-76
2022/12/31 07:28:06;;;;;;;34.85;25.52;;;;;;;2.87;100.00;100571.48;1704847;83;20961;-72
2022/12/31 07:31:09;;;;;;;36.13;27.73;;;;;;;2.96;100.00;100583.70;1680268;83;21085;-74
2022/12/31 07:34:00;;;;;;;54.23;39.35;;;;;;;2.94;100.00;100589.18;1696763;83;21083;-74
2022/12/31 07:36:48;;;;;;;67.10;48.40;;;;;;;2.92;100.00;100592.53;1677893;84;21588;-75
2022/12/31 07:39:38;;;;;;;42.30;28.17;;;;;;;2.91;100.00;100591.38;1679172;85;20948;-74
2022/12/31 07:42:25;;;;;;;37.28;28.83;;;;;;;2.87;100.00;100590.91;1678380;84;21052;-76
2022/12/31 07:45:02;;;;;;;35.33;26.65;;;;;;;2.83;100.00;100583.48;1663250;84;21045;-76
2022/12/31 07:47:34;;;;;;;36.65;27.95;;;;;;;2.82;100.00;100590.63;1669161;84;21027;-75
2022/12/31 07:50:09;;;;;;;36.17;26.25;;;;;;;2.70;100.00;100589.36;1670808;85;21043;-78
2022/12/31 07:52:43;;;;;;;39.42;28.47;;;;;;;2.66;100.00;100588.06;1626067;85;21522;-77
2022/12/31 07:55:12;;;;;;;34.00;28.83;;;;;;;2.65;100.00;100598.36;1689033;83;21075;-77
2022/12/31 07:58:19;;;;;;;47.50;31.27;;;;;;;2.69;100.00;100595.67;1704709;83;21335;-77
2022/12/31 08:00:49;;;;;;;47.70;33.75;;;;;;;2.73;100.00;100595.67;1704452;83;21074;-81
2022/12/31 08:03:48;;;;;;;52.50;38.10;;;;;;;2.79;100.00;100598.92;1687385;83;21455;-82
2022/12/31 08:06:30;;;;;;;40.88;32.63;;;;;;;2.80;100.00;100603.23;1707842;83;20929;-80
2022/12/31 08:09:28;;;;;;;46.45;33.08;;;;;;;2.85;100.00;100599.55;1687269;83;21528;-80
2022/12/31 08:12:02;;;;;;;40.60;26.68;;;;;;;2.90;100.00;100605.16;1702689;83;21379;-81
2022/12/31 08:14:45;;;;;;;39.40;28.30;;;;;;;2.93;100.00;100610.60;1713522;83;20992;-78
2022/12/31 08:17:14;;;;;;;42.23;31.70;;;;;;;2.96;100.00;100612.42;1698880;83;21052;-79
2022/12/31 08:19:44;;;;;;;47.73;34.50;;;;;;;3.05;100.00;100609.20;1718601;83;21079;-81
2022/12/31 08:22:40;;;;;;;45.43;33.63;;;;;;;3.16;100.00;100598.15;1697786;83;21516;-77
2022/12/31 08:25:14;;;;;;;;;;;;;;;3.28;100.00;100597.20;1688628;85;21412;-80
2022/12/31 08:28:22;;;;;;;46.35;35.68;;;;;;;3.34;100.00;100595.98;1686735;83;20158;-77
2022/12/31 08:31:04;;;;;;;48.78;35.92;;;;;;;3.34;100.00;100598.64;1683270;85;21128;-76
2022/12/31 08:33:58;;;;;;;51.42;35.92;;;;;;;3.40;100.00;100597.92;1695991;84;21048;-79
2022/12/31 08:36:56;;;;;;;44.05;33.08;;;;;;;3.43;100.00;100595.39;1675528;85;21044;-80
2022/12/31 08:39:49;;;;;;;46.55;32.88;;;;;;;3.50;100.00;100598.99;1687475;83;21592;-76
2022/12/31 08:42:50;;;;;;;43.73;33.65;;;;;;;3.60;100.00;100596.07;1687595;83;21138;-75
2022/12/31 08:45:40;;;;;;;45.17;32.10;;;;;;;3.65;100.00;100594.48;1660969;86;21079;-79
2022/12/31 08:48:25;;;;;;;37.73;28.10;;;;;;;3.68;100.00;100591.48;1674198;85;21044;-77
2022/12/31 08:50:57;;;;;;;40.35;30.10;;;;;;;3.66;100.00;100586.00;1675319;85;21135;-75
2022/12/31 08:53:28;;;;;;;42.85;31.62;;;;;;;3.66;100.00;100586.00;1657541;85;22162;-73
2022/12/31 08:56:08;;;;;;;39.38;30.82;;;;;;;3.69;100.00;100580.34;1661802;84;21082;-78
2022/12/31 08:59:00;;;;;;;39.88;29.50;;;;;;;3.86;100.00;100571.97;1691178;83;21524;-81
2022/12/31 09:01:57;;;;;;;35.70;26.62;;;;;;;3.86;100.00;100571.97;1642162;85;21058;-83
2022/12/31 09:05:12;;;;;;;35.92;26.07;;;;;;;4.00;100.00;100556.17;1666724;84;21596;-76
2022/12/31 09:08:08;;;;;;;37.55;27.58;;;;;;;4.12;100.00;100558.69;1671601;83;21216;-79
2022/12/31 09:11:17;;;;;;;37.38;27.40;;;;;;;4.18;100.00;100560.58;1668499;85;21082;-76
2022/12/31 09:19:47;;;;;;;35.60;27.62;;;;;;;4.20;100.00;100555.41;1651872;85;21027;-78
2022/12/31 09:22:30;;;;;;;38.58;29.42;;;;;;;4.20;100.00;100555.91;1573838;89;21047;-73
2022/12/31 09:25:04;;;;;;;36.08;27.50;;;;;;;4.27;100.00;100553.62;1603289;89;22041;-75
2022/12/31 09:28:02;;;;;;;39.53;28.10;;;;;;;4.35;100.00;100550.88;1576026;89;21085;-79
2022/12/31 09:30:35;;;;;;;37.25;28.45;;;;;;;4.38;100.00;100546.48;1591513;88;21046;-74
2022/12/31 09:33:14;;;;;;;;;;;;;;;4.49;100.00;100548.34;1629108;88;21086;-77
2022/12/31 09:35:57;;;;;;;32.90;26.05;;;;;;;4.53;100.00;100550.43;1638374;86;21633;-78
2022/12/31 09:38:38;;;;;;;40.52;27.80;;;;;;;4.51;100.00;100552.45;1621045;88;21571;-78
2022/12/31 09:41:28;;;;;;;42.98;31.42;;;;;;;4.45;100.00;100542.58;1627214;88;21068;-79
2022/12/31 09:44:54;;;;;;;42.73;34.43;;;;;;;4.39;100.00;100545.98;1605104;88;21135;-81
2022/12/31 09:47:51;;;;;;;46.50;31.27;;;;;;;4.46;100.00;100545.53;1633766;86;21096;-81
2022/12/31 09:50:36;;;;;;;51.15;38.00;;;;;;;4.48;100.00;100536.86;1621049;86;22414;-77
2022/12/31 09:53:53;;;;;;;58.17;41.20;;;;;;;4.60;100.00;100542.02;1639091;84;21082;-78
2022/12/31 09:57:23;;;;;;;50.58;37.63;;;;;;;4.74;100.00;100541.63;1684498;83;21039;-81
2022/12/31 10:00:50;;;;;;;52.53;41.87;;;;;;;4.90;100.00;100541.84;1634475;86;21040;-80
2022/12/31 10:03:30;;;;;;;51.98;37.78;;;;;;;5.03;100.00;100533.48;1610673;87;21045;-79
2022/12/31 10:06:59;;;;;;;46.40;37.90;;;;;;;5.18;100.00;100524.05;1601259;88;21958;-84
2022/12/31 10:10:23;;;;;;;48.28;35.08;;;;;;;5.34;100.00;100526.40;1628309;87;21124;-83
2022/12/31 10:13:35;;;;;;;57.43;39.35;;;;;;;5.48;100.00;100522.80;1618305;85;21589;-86
2022/12/31 10:16:33;;;;;;;50.85;36.83;;;;;;;5.57;100.00;100512.27;1591628;89;21125;-75
2022/12/31 10:19:26;;;;;;;48.75;36.40;;;;;;;5.60;100.00;100499.06;1613655;87;21044;-80
2022/12/31 10:22:36;;;;;;;49.38;35.65;;;;;;;5.66;100.00;100499.08;1610125;86;21193;-85
2022/12/31 10:25:32;;;;;;;48.20;39.60;;;;;;;5.74;100.00;100494.61;1635841;86;21135;-86
2022/12/31 10:28:35;;;;;;;46.50;33.95;;;;;;;5.75;99.37;100493.08;1609373;87;21591;-87
2022/12/31 10:31:28;;;;;;;48.68;34.55;;;;;;;5.79;99.67;100478.82;1612863;87;21043;-86
2022/12/31 10:34:25;;;;;;;45.38;34.45;;;;;;;5.85;99.35;100476.16;1626852;87;21119;-85
2022/12/31 10:37:21;;;;;;;45.03;31.70;;;;;;;5.91;99.24;100473.23;1616427;87;21168;-85
2022/12/31 10:40:16;;;;;;;43.87;29.95;;;;;;;5.98;98.85;100475.44;1630908;86;21131;-86
2022/12/31 10:43:17;;;;;;;;;;;;;;;;;;;;;
2022/12/31 10:45:51;;;;;;;34.30;25.85;;;;;;;6.11;98.01;100467.45;1689517;83;21031;-75
2022/12/31 10:49:10;;;;;;;35.08;25.37;;;;;;;6.20;97.64;100470.75;1685126;83;21496;-75
2022/12/31 10:52:32;;;;;;;39.88;25.23;;;;;;;6.25;96.76;100474.47;1688199;84;21592;-74
2022/12/31 10:55:31;;;;;;;30.00;22.82;;;;;;;6.30;96.26;100463.17;1709649;83;21707;-85
2022/12/31 10:58:51;;;;;;;35.30;22.82;;;;;;;6.36;96.04;100463.20;1678293;83;22186;-81
2022/12/31 11:01:32;;;;;;;31.15;23.30;;;;;;;6.40;94.90;100456.92;1637588;84;22559;-73
2022/12/31 11:04:48;;;;;;;36.40;26.42;;;;;;;6.44;94.75;100461.66;1696421;84;21073;-69
2022/12/31 11:07:47;;;;;;;;;;;;;;;6.44;94.06;100456.31;1680440;84;21125;-77
2022/12/31 11:10:48;;;;;;;26.35;21.07;;;;;;;6.45;93.85;100449.95;1676066;83;20242;-81
2022/12/31 11:13:58;;;;;;;27.32;20.27;;;;;;;6.50;94.00;100453.34;1692474;83;20968;-81
2022/12/31 11:17:05;;;;;;;29.98;22.07;;;;;;;6.58;93.93;100439.77;1688878;84;21104;-78
2022/12/31 11:20:18;;;;;;;27.13;21.27;;;;;;;6.63;93.41;100437.30;1678410;83;21100;-82
2022/12/31 11:23:53;;;;;;;31.10;21.02;;;;;;;6.71;93.09;100422.41;1707624;83;22179;-81
2022/12/31 11:26:41;;;;;;;30.60;21.37;;;;;;;6.79;92.97;100427.53;1672598;85;21124;-81
2022/12/31 11:30:05;;;;;;;33.53;23.80;;;;;;;6.83;92.74;100431.44;1675353;85;21197;-84
2022/12/31 11:32:58;;;;;;;29.80;21.48;;;;;;;6.79;92.34;100431.55;1677870;83;21032;-80
2022/12/31 11:35:33;;;;;;;26.80;20.55;;;;;;;6.80;92.20;100430.52;1672955;83;21491;-78
2022/12/31 11:38:22;;;;;;;26.60;19.45;;;;;;;6.70;92.28;100430.63;1697601;84;21147;-78
2022/12/31 11:40:57;;;;;;;27.10;20.68;;;;;;;6.62;92.47;100428.17;1695173;84;21040;-77
2022/12/31 11:43:45;;;;;;;26.68;21.65;;;;;;;6.62;92.77;100416.94;1690237;83;21051;-79
2022/12/31 11:47:09;;;;;;;31.82;21.90;;;;;;;6.60;92.67;100416.85;1701004;83;20968;-81
2022/12/31 11:50:10;;;;;;;37.90;23.50;;;;;;;6.52;92.80;100410.67;1664404;85;21056;-83
2022/12/31 11:53:12;;;;;;;30.68;24.60;;;;;;;6.43;93.00;100397.72;1682410;83;21113;-88
2022/12/31 11:56:04;;;;;;;33.20;23.55;;;;;;;6.36;93.47;100396.41;1650812;82;21007;-82
2022/12/31 11:58:38;;;;;;;31.48;24.20;;;;;;;6.29;93.59;100390.73;1669151;84;21083;-84
2022/12/31 12:01:40;;;;;;;34.35;26.12;;;;;;;6.28;94.07;100399.80;1672731;85;21015;-77
2022/12/31 12:04:16;;;;;;;32.13;25.08;;;;;;;6.30;94.03;100402.56;1682152;82;21052;-84
2022/12/31 12:06:54;;;;;;;36.20;27.22;;;;;;;6.25;94.14;100407.69;1679993;84;21072;-79
2022/12/31 12:09:35;;;;;;;31.45;25.62;;;;;;;6.20;94.26;100418.67;1665330;84;21008;-85
2022/12/31 12:12:29;;;;;;;36.90;26.60;;;;;;;6.14;94.61;100415.78;1711403;83;21533;-82
2022/12/31 12:15:07;;;;;;;35.23;25.68;;;;;;;6.12;94.96;100410.35;1631347;84;21111;-83
2022/12/31 12:17:43;;;;;;;32.25;26.02;;;;;;;6.12;95.22;100388.48;1673617;84;21055;-84
2022/12/31 12:20:22;;;;;;;40.30;27.67;;;;;;;6.10;95.28;100384.34;1666164;82;21378;-83
2022/12/31 12:22:54;;;;;;;34.27;27.35;;;;;;;6.05;95.44;100388.14;1674058;84;21036;-86
2022/12/31 12:25:26;;;;;;;35.68;27.10;;;;;;;6.01;95.71;100385.57;1666077;84;20995;-82
2022/12/31 12:27:54;;;;;;;38.33;25.60;;;;;;;5.99;95.89;100381.79;1688791;84;21070;-83